Terminal Aerodrome Forecast
Issued by NWS Corpus Christi, TX

Home | Current Version | Previous Version | Text Only | Print | Product List | Glossary On
Versions: 1 2 3 4 5 6 7 8 9 10 11 12
000
FTUS44 KCRP 271100
TAFCRP
TAF
KCRP 271126Z 2712/2812 VRB03KT P6SM SCT025
     FM271500 03010KT P6SM VCSH SCT025
     FM271800 05012G18KT P6SM VCTS BKN035CB
     FM280000 10010KT P6SM SCT025
     FM280900 12005KT P6SM VCSH BKN035=

USA.gov is the U.S. government's official web portal to all federal, state and local government web resources and services.